Etusivu
METAR-TAF:

METAR-TAF

Lentoasemat :

Kirkwallin lentoasema

Kirkwall, Skotlanti

Leveyspiiri: 58-57N, Pituuspiiri: 002-54W, korkeus merenpinnasta: 21 m

Tämänhetkinen sää

Tämä raportti tehtiin 53 minuuttia sitten, kello 19.20 UTC
Tuuli 3 kn idästä
Lämpötila 13°C
Kosteus 88%
Ilmanpaine 1013 hPa
Näkyvyys 10 km tai enemmän
Muutamia pilviä 1000 ft:n korkeudessa

METAR: EGPA 221920Z 09003KT 9999 FEW010 13/11 Q1013

Aika: 21:13 (20:13 UTC)

Sääennuste

Tämä raportti tehtiin 3 tuntia ja 16 minuuttia sitten, kello 16.57 UTC
Ennuste voimassa 22. päivästä klo 18 UTC - 23. päivään klo 03 UTC
Tuuli 9 kn idästä
Näkyvyys 10 km tai enemmän
Muutamia pilviä 1000 ft:n korkeudessa
Todennäköisyys 30% :
Ajoittain
22. päivästä klo 22 UTC - 23. päivään klo 03 UTC
Näkyvyys: 4000 m
Hajonneita pilviä 300 ft:n korkeudessa
utua,

TAF: EGPA 221657Z 2218/2303 09009KT 9999 FEW010 PROB30 TEMPO 2222/2303 4000 BR BKN003

Säähavainnot ja -ennusteet yli 4000 lentoasemalta (METAR- ja TAF-raportit).

Käytössä olevat sääasemat on merkitty karttaan keltaisilla ja punaisilla pisteillä.

Aseta hiiri pisteen päälle nähdäksesi sääaseman nimen.

Klikkaa sitten nähdäksesi säähavainnot ja -ennusteet.

Kartan vaihtaminen: klikkaa mustalla rastilla varustettuja vihreitä pisteitä, niin voit zoomata sisään; viivalla varustettua vihreää pistettä, niin voit zoomata ulos tai vihreitä nuolia, niin pääset viereisille kartoille.


METAR-TAF: